createdAt,value
2023-04-07T00:00:58.738Z,97.09
2023-04-07T00:01:58.763Z,97.09
2023-04-07T00:02:58.795Z,97.19
2023-04-07T00:03:59.045Z,97.19
2023-04-07T00:04:58.967Z,97.19
2023-04-07T00:05:58.711Z,97.30
2023-04-07T00:06:58.686Z,97.30
2023-04-07T00:07:58.650Z,97.19
2023-04-07T00:08:58.673Z,97.09
2023-04-07T00:09:58.767Z,96.99
2023-04-07T00:10:58.612Z,96.84
2023-04-07T00:11:58.624Z,96.73
2023-04-07T00:12:58.622Z,96.84
2023-04-07T00:13:58.598Z,96.73
2023-04-07T00:14:59.127Z,96.73
2023-04-07T00:15:58.641Z,96.73
2023-04-07T00:16:58.572Z,96.53
2023-04-07T00:17:58.584Z,96.53
2023-04-07T00:18:58.527Z,96.64
2023-04-07T00:19:59.033Z,96.53
2023-04-07T00:20:58.504Z,96.53
2023-04-07T00:21:58.501Z,96.43
2023-04-07T00:22:58.484Z,96.53
2023-04-07T00:23:58.489Z,96.64
2023-04-07T00:24:58.469Z,96.43
2023-04-07T00:25:58.469Z,96.53
2023-04-07T00:26:58.447Z,96.64
2023-04-07T00:27:58.434Z,96.73
2023-04-07T00:28:58.427Z,96.84
2023-04-07T00:29:58.475Z,96.84
2023-04-07T00:30:58.398Z,96.73
2023-04-07T00:31:58.388Z,96.73
2023-04-07T00:32:58.387Z,96.73
2023-04-07T00:33:58.375Z,96.84
2023-04-07T00:34:58.424Z,96.94
2023-04-07T00:35:58.379Z,97.05
2023-04-07T00:36:58.331Z,97.05
2023-04-07T00:37:58.323Z,97.15
2023-04-07T00:38:58.379Z,97.25
2023-04-07T00:39:58.320Z,97.25
2023-04-07T00:40:58.297Z,97.36
2023-04-07T00:41:58.287Z,97.45
2023-04-07T00:42:58.266Z,97.66
2023-04-07T00:43:58.273Z,97.91
2023-04-07T00:44:58.294Z,97.91
2023-04-07T00:45:58.250Z,98.12
2023-04-07T00:46:58.220Z,98.12
2023-04-07T00:47:58.340Z,98.02
2023-04-07T00:48:58.256Z,98.22
2023-04-07T00:49:58.223Z,98.33
2023-04-07T00:50:58.185Z,98.43
2023-04-07T00:51:58.182Z,98.63
2023-04-07T00:52:58.173Z,98.84
2023-04-07T00:53:58.154Z,98.84
2023-04-07T00:54:58.159Z,98.94
2023-04-07T00:55:58.144Z,99.05
2023-04-07T00:56:58.132Z,99.15
2023-04-07T00:57:58.108Z,99.15
2023-04-07T00:58:58.101Z,99.25
2023-04-07T00:59:58.108Z,99.15
2023-04-07T01:00:58.082Z,99.15
2023-04-07T01:01:58.269Z,99.25
2023-04-07T01:02:58.289Z,99.35
2023-04-07T01:03:58.398Z,99.56
2023-04-07T01:04:58.179Z,99.56
2023-04-07T01:05:58.030Z,99.56
2023-04-07T01:06:58.009Z,99.56
2023-04-07T01:07:58.008Z,99.56
2023-04-07T01:08:58.020Z,99.66
2023-04-07T01:09:57.994Z,99.77
2023-04-07T01:10:57.999Z,99.87
2023-04-07T01:11:57.956Z,99.87
2023-04-07T01:12:57.956Z,99.87
2023-04-07T01:13:58.091Z,99.99
2023-04-07T01:14:57.967Z,99.99
2023-04-07T01:15:57.943Z,99.99
2023-04-07T01:16:57.930Z,99.99
2023-04-07T01:17:57.948Z,99.99
2023-04-07T01:18:57.883Z,99.99
2023-04-07T01:19:57.890Z,99.99
2023-04-07T01:20:57.854Z,99.99
2023-04-07T01:21:57.853Z,99.99
2023-04-07T01:22:57.842Z,99.99
2023-04-07T01:23:57.907Z,99.99
2023-04-07T01:24:57.998Z,99.99
2023-04-07T01:25:57.812Z,99.99
2023-04-07T01:26:57.800Z,99.99
2023-04-07T01:27:57.781Z,99.99
2023-04-07T01:28:57.787Z,99.99
2023-04-07T01:29:57.785Z,99.99
2023-04-07T01:30:57.750Z,99.99
2023-04-07T01:31:57.807Z,99.99
2023-04-07T01:32:57.763Z,99.99
2023-04-07T01:33:57.851Z,99.99
2023-04-07T01:34:57.723Z,99.99
2023-04-07T01:35:57.734Z,99.99
2023-04-07T01:36:57.763Z,99.99
2023-04-07T01:37:57.675Z,99.99
2023-04-07T01:38:57.722Z,99.99
2023-04-07T01:39:57.713Z,99.99
2023-04-07T01:40:57.650Z,99.99
2023-04-07T01:41:57.666Z,99.99
2023-04-07T01:42:57.621Z,99.99
2023-04-07T01:43:57.665Z,99.99
2023-04-07T01:44:57.605Z,99.99
2023-04-07T01:45:57.641Z,99.99
2023-04-07T01:46:57.650Z,99.99
2023-04-07T01:47:57.643Z,99.99
2023-04-07T01:48:57.582Z,99.99
2023-04-07T01:49:57.584Z,99.99
2023-04-07T01:50:57.584Z,99.99
2023-04-07T01:51:57.531Z,99.99
2023-04-07T01:52:57.553Z,99.99
2023-04-07T01:53:57.634Z,99.99
2023-04-07T01:54:57.502Z,99.99
2023-04-07T01:55:57.502Z,99.99
2023-04-07T01:56:57.614Z,99.99
2023-04-07T01:57:57.461Z,99.99
2023-04-07T01:58:57.477Z,99.99
2023-04-07T01:59:57.440Z,99.99
2023-04-07T02:00:57.463Z,99.99
2023-04-07T02:01:57.474Z,99.99
2023-04-07T02:02:57.559Z,99.99
2023-04-07T02:03:57.728Z,99.99
2023-04-07T02:04:57.445Z,99.99
2023-04-07T02:05:57.400Z,99.99
2023-04-07T02:06:57.420Z,99.99
2023-04-07T02:07:57.370Z,99.99
2023-04-07T02:08:57.410Z,99.99
2023-04-07T02:09:57.366Z,99.99
2023-04-07T02:10:57.356Z,99.99
2023-04-07T02:11:57.327Z,99.99
2023-04-07T02:12:57.344Z,99.99
2023-04-07T02:13:57.298Z,99.99
2023-04-07T02:14:57.479Z,99.99
2023-04-07T02:15:57.334Z,99.99
2023-04-07T02:16:57.310Z,99.99
2023-04-07T02:17:57.298Z,99.99
2023-04-07T02:18:57.234Z,99.99
2023-04-07T02:19:57.247Z,99.99
2023-04-07T02:20:57.235Z,99.99
2023-04-07T02:21:57.227Z,99.99
2023-04-07T02:22:57.288Z,99.99
2023-04-07T02:23:57.404Z,99.99
2023-04-07T02:24:57.195Z,99.99
2023-04-07T02:25:57.177Z,99.99
2023-04-07T02:26:57.150Z,99.99
2023-04-07T02:27:57.167Z,99.99
2023-04-07T02:28:57.192Z,99.99
2023-04-07T02:29:57.159Z,99.99
2023-04-07T02:30:57.282Z,99.99
2023-04-07T02:31:57.141Z,99.99
2023-04-07T02:32:57.134Z,99.99
2023-04-07T02:33:57.087Z,99.99
2023-04-07T02:34:57.087Z,99.99
2023-04-07T02:35:57.063Z,99.99
2023-04-07T02:36:57.151Z,99.99
2023-04-07T02:37:57.038Z,99.99
2023-04-07T02:38:57.056Z,99.99
2023-04-07T02:39:57.023Z,99.99
2023-04-07T02:40:57.012Z,99.99
2023-04-07T02:41:57.001Z,99.99
2023-04-07T02:42:57.033Z,99.99
2023-04-07T02:43:57.466Z,99.99
2023-04-07T02:44:56.965Z,99.99
2023-04-07T02:45:57.014Z,99.99
2023-04-07T02:46:57.016Z,99.99
2023-04-07T02:47:56.956Z,99.99
2023-04-07T02:48:56.922Z,99.99
2023-04-07T02:49:56.929Z,99.99
2023-04-07T02:50:56.892Z,99.99
2023-04-07T02:51:56.880Z,99.99
2023-04-07T02:52:56.919Z,99.99
2023-04-07T02:53:57.192Z,99.99
2023-04-07T02:54:56.874Z,99.99
2023-04-07T02:55:56.870Z,99.99
2023-04-07T02:56:56.849Z,99.99
2023-04-07T02:57:56.819Z,99.99
2023-04-07T02:58:56.877Z,99.99
2023-04-07T02:59:56.798Z,99.99
2023-04-07T03:00:56.842Z,99.99
2023-04-07T03:01:56.980Z,99.99
2023-04-07T03:02:56.919Z,99.99
2023-04-07T03:03:57.169Z,99.99
2023-04-07T03:04:56.741Z,99.99
2023-04-07T03:05:56.740Z,99.99
2023-04-07T03:06:56.737Z,99.99
2023-04-07T03:07:56.739Z,99.99
2023-04-07T03:08:56.717Z,99.99
2023-04-07T03:09:56.707Z,99.99
2023-04-07T03:10:56.693Z,99.99
2023-04-07T03:11:56.671Z,99.99
2023-04-07T03:12:56.657Z,99.99
2023-04-07T03:13:56.658Z,99.99
2023-04-07T03:14:56.642Z,99.99
2023-04-07T03:15:56.626Z,99.99
2023-04-07T03:16:56.654Z,99.99
2023-04-07T03:17:56.709Z,99.99
2023-04-07T03:18:56.605Z,99.99
2023-04-07T03:19:56.588Z,99.99
2023-04-07T03:20:56.584Z,99.99
2023-04-07T03:21:56.561Z,99.99
2023-04-07T03:22:56.551Z,99.99
2023-04-07T03:23:56.589Z,99.99
2023-04-07T03:24:56.535Z,99.99
2023-04-07T03:25:56.525Z,99.99
2023-04-07T03:26:56.521Z,99.99
2023-04-07T03:27:56.501Z,99.99
2023-04-07T03:28:56.492Z,99.99
2023-04-07T03:29:56.473Z,99.99
2023-04-07T03:30:56.481Z,99.99
2023-04-07T03:31:56.465Z,99.99
2023-04-07T03:32:56.477Z,99.99
2023-04-07T03:33:56.438Z,99.99
2023-04-07T03:34:56.423Z,99.99
2023-04-07T03:35:56.458Z,99.99
2023-04-07T03:36:56.400Z,99.99
2023-04-07T03:37:56.391Z,99.99
2023-04-07T03:38:56.405Z,99.99
2023-04-07T03:39:56.383Z,99.99
2023-04-07T03:40:56.361Z,99.99
2023-04-07T03:41:56.403Z,99.99
2023-04-07T03:42:56.365Z,99.99
2023-04-07T03:43:56.385Z,99.99
2023-04-07T03:44:56.314Z,99.99
2023-04-07T03:45:56.370Z,99.99
2023-04-07T03:46:56.318Z,99.99
2023-04-07T03:47:56.338Z,99.99
2023-04-07T03:48:56.284Z,99.99
2023-04-07T03:49:56.271Z,99.99
2023-04-07T03:50:56.262Z,99.99
2023-04-07T03:51:56.245Z,99.99
2023-04-07T03:52:56.254Z,99.99
2023-04-07T03:53:56.247Z,99.99
2023-04-07T03:54:56.266Z,99.99
2023-04-07T03:55:56.229Z,99.99
2023-04-07T03:56:56.204Z,99.99
2023-04-07T03:57:56.203Z,99.99
2023-04-07T03:58:56.204Z,99.99
2023-04-07T03:59:56.166Z,99.99
2023-04-07T04:00:56.177Z,99.99
2023-04-07T04:01:56.171Z,99.99
2023-04-07T04:02:56.220Z,99.99
2023-04-07T04:03:56.438Z,99.99
2023-04-07T04:04:56.112Z,99.99
2023-04-07T04:05:56.092Z,99.99
2023-04-07T04:06:56.127Z,99.99
2023-04-07T04:07:56.073Z,99.99
2023-04-07T04:08:56.076Z,99.99
2023-04-07T04:09:56.062Z,99.99
2023-04-07T04:10:56.029Z,99.99
2023-04-07T04:11:56.091Z,99.99
2023-04-07T04:12:56.051Z,99.99
2023-04-07T04:13:56.074Z,99.99
2023-04-07T04:14:55.994Z,99.99
2023-04-07T04:15:56.013Z,99.99
2023-04-07T04:16:56.022Z,99.99
2023-04-07T04:17:55.999Z,99.99
2023-04-07T04:18:55.960Z,99.99
2023-04-07T04:19:55.942Z,99.99
2023-04-07T04:20:55.936Z,99.99
2023-04-07T04:21:55.914Z,99.99
2023-04-07T04:22:55.936Z,99.99
2023-04-07T04:23:55.914Z,99.99
2023-04-07T04:24:55.889Z,99.99
2023-04-07T04:25:55.933Z,99.99
2023-04-07T04:26:55.862Z,99.99
2023-04-07T04:27:55.854Z,99.99
2023-04-07T04:28:55.866Z,99.99
2023-04-07T04:29:55.840Z,99.99
2023-04-07T04:30:55.837Z,99.99
2023-04-07T04:31:55.848Z,99.99
2023-04-07T04:32:55.936Z,99.99
2023-04-07T04:33:55.822Z,99.99
2023-04-07T04:34:55.779Z,99.99
2023-04-07T04:35:55.823Z,99.99
2023-04-07T04:36:55.803Z,99.99
2023-04-07T04:37:55.758Z,99.99
2023-04-07T04:38:55.786Z,99.99
2023-04-07T04:39:55.725Z,99.99
2023-04-07T04:40:55.715Z,99.99
2023-04-07T04:41:55.730Z,99.99
2023-04-07T04:42:55.723Z,99.99
2023-04-07T04:43:55.712Z,99.99
2023-04-07T04:44:55.676Z,99.93
2023-04-07T04:45:55.657Z,99.93
2023-04-07T04:46:55.715Z,99.82
2023-04-07T04:47:55.675Z,99.93
2023-04-07T04:48:55.642Z,99.93
2023-04-07T04:49:55.667Z,99.93
2023-04-07T04:50:55.603Z,99.99
2023-04-07T04:51:55.596Z,99.99
2023-04-07T04:52:55.580Z,99.93
2023-04-07T04:53:55.784Z,99.93
2023-04-07T04:54:55.567Z,99.82
2023-04-07T04:55:55.569Z,99.93
2023-04-07T04:56:55.538Z,99.93
2023-04-07T04:57:55.539Z,99.93
2023-04-07T04:58:55.551Z,99.93
2023-04-07T04:59:55.511Z,99.82
2023-04-07T05:00:55.572Z,99.82
2023-04-07T05:01:55.571Z,99.82
2023-04-07T05:02:55.712Z,99.72
2023-04-07T05:03:55.781Z,99.62
2023-04-07T05:04:55.549Z,99.62
2023-04-07T05:05:55.443Z,99.51
2023-04-07T05:06:55.425Z,99.62
2023-04-07T05:07:55.428Z,99.51
2023-04-07T05:08:55.440Z,99.41
2023-04-07T05:09:55.401Z,99.51
2023-04-07T05:10:55.398Z,99.62
2023-04-07T05:11:55.379Z,99.62
2023-04-07T05:12:55.417Z,99.62
2023-04-07T05:13:55.375Z,99.72
2023-04-07T05:14:55.400Z,99.72
2023-04-07T05:15:55.423Z,99.72
2023-04-07T05:16:55.325Z,99.82
2023-04-07T05:17:55.348Z,99.72
2023-04-07T05:18:55.310Z,99.72
2023-04-07T05:19:55.300Z,99.72
2023-04-07T05:20:55.292Z,99.72
2023-04-07T05:21:55.269Z,99.82
2023-04-07T05:22:55.300Z,99.82
2023-04-07T05:23:55.282Z,99.72
2023-04-07T05:24:55.258Z,99.82
2023-04-07T05:25:55.229Z,99.93
2023-04-07T05:26:55.240Z,99.99
2023-04-07T05:27:55.217Z,99.99
2023-04-07T05:28:55.215Z,99.99
2023-04-07T05:29:55.267Z,99.99
2023-04-07T05:30:55.477Z,99.99
2023-04-07T05:31:55.181Z,99.99
2023-04-07T05:32:55.230Z,99.99
2023-04-07T05:33:55.152Z,99.99
2023-04-07T05:34:55.130Z,99.99
2023-04-07T05:35:55.160Z,99.99
2023-04-07T05:36:55.114Z,99.99
2023-04-07T05:37:55.106Z,99.99
2023-04-07T05:38:55.262Z,99.97
2023-04-07T05:39:55.105Z,99.97
2023-04-07T05:40:55.077Z,99.87
2023-04-07T05:41:55.056Z,99.97
2023-04-07T05:42:55.042Z,99.87
2023-04-07T05:43:55.045Z,99.97
2023-04-07T05:44:55.054Z,99.87
2023-04-07T05:45:55.078Z,99.87
2023-04-07T05:46:54.996Z,99.87
2023-04-07T05:47:55.008Z,99.77
2023-04-07T05:48:54.994Z,99.87
2023-04-07T05:49:54.985Z,99.87
2023-04-07T05:50:54.977Z,99.87
2023-04-07T05:51:54.947Z,99.77
2023-04-07T05:52:54.962Z,99.77
2023-04-07T05:53:54.938Z,99.87
2023-04-07T05:54:54.941Z,99.87
2023-04-07T05:55:54.909Z,99.87
2023-04-07T05:56:54.928Z,99.77
2023-04-07T05:57:54.928Z,99.77
2023-04-07T05:58:54.884Z,99.87
2023-04-07T05:59:54.863Z,99.77
2023-04-07T06:00:54.887Z,99.87
2023-04-07T06:01:54.928Z,99.77
2023-04-07T06:02:54.926Z,99.77
2023-04-07T06:03:54.838Z,99.77
2023-04-07T06:04:54.933Z,99.66
2023-04-07T06:05:54.801Z,99.66
2023-04-07T06:06:54.824Z,99.66
2023-04-07T06:07:54.826Z,99.66
2023-04-07T06:08:54.792Z,99.66
2023-04-07T06:09:54.773Z,99.77
2023-04-07T06:10:54.747Z,99.66
2023-04-07T06:11:54.749Z,99.77
2023-04-07T06:12:54.730Z,99.77
2023-04-07T06:13:54.723Z,99.77
2023-04-07T06:14:54.751Z,99.66
2023-04-07T06:15:54.724Z,99.66
2023-04-07T06:16:54.700Z,99.56
2023-04-07T06:17:54.685Z,99.46
2023-04-07T06:18:54.723Z,99.56
2023-04-07T06:19:54.665Z,99.46
2023-04-07T06:20:54.646Z,99.46
2023-04-07T06:21:54.638Z,99.35
2023-04-07T06:22:54.617Z,99.35
2023-04-07T06:23:54.718Z,99.35
2023-04-07T06:24:54.584Z,99.35
2023-04-07T06:25:54.589Z,99.46
2023-04-07T06:26:54.574Z,99.46
2023-04-07T06:27:54.559Z,99.35
2023-04-07T06:28:54.594Z,99.46
2023-04-07T06:29:54.543Z,99.46
2023-04-07T06:30:54.559Z,99.56
2023-04-07T06:31:54.676Z,99.56
2023-04-07T06:32:54.572Z,99.56
2023-04-07T06:33:54.505Z,99.56
2023-04-07T06:34:54.479Z,99.56
2023-04-07T06:35:54.524Z,99.56
2023-04-07T06:36:54.909Z,99.46
2023-04-07T06:37:54.452Z,99.46
2023-04-07T06:38:54.464Z,99.46
2023-04-07T06:39:54.609Z,99.41
2023-04-07T06:40:54.424Z,99.46
2023-04-07T06:41:54.472Z,99.51
2023-04-07T06:42:54.400Z,99.41
2023-04-07T06:43:54.398Z,99.41
2023-04-07T06:44:54.381Z,99.41
2023-04-07T06:45:54.400Z,99.41
2023-04-07T06:46:54.357Z,99.31
2023-04-07T06:47:54.368Z,99.41
2023-04-07T06:48:54.339Z,99.56
2023-04-07T06:49:54.333Z,99.56
2023-04-07T06:50:54.316Z,99.56
2023-04-07T06:51:54.333Z,99.51
2023-04-07T06:52:54.285Z,99.51
2023-04-07T06:53:54.335Z,99.51
2023-04-07T06:54:54.294Z,99.56
2023-04-07T06:55:54.264Z,99.51
2023-04-07T06:56:54.674Z,99.51
2023-04-07T06:57:54.235Z,99.62
2023-04-07T06:58:54.234Z,99.72
2023-04-07T06:59:54.228Z,99.72
2023-04-07T07:00:54.224Z,99.72
2023-04-07T07:01:54.265Z,99.72
2023-04-07T07:02:54.341Z,99.82
2023-04-07T07:03:54.249Z,99.72
2023-04-07T07:04:54.163Z,99.62
2023-04-07T07:05:54.157Z,99.51
2023-04-07T07:06:54.131Z,99.51
2023-04-07T07:07:54.177Z,99.51
2023-04-07T07:08:54.123Z,99.51
2023-04-07T07:09:54.114Z,99.41
2023-04-07T07:10:54.122Z,99.41
2023-04-07T07:11:54.084Z,99.41
2023-04-07T07:12:54.082Z,99.41
2023-04-07T07:13:54.091Z,99.41
2023-04-07T07:14:54.044Z,99.41
2023-04-07T07:15:54.195Z,99.31
2023-04-07T07:16:54.033Z,99.31
2023-04-07T07:17:54.241Z,99.31
2023-04-07T07:18:55.700Z,99.21
2023-04-07T07:19:54.116Z,99.21
2023-04-07T07:20:54.637Z,99.31
2023-04-07T07:21:54.041Z,99.41
2023-04-07T07:22:54.186Z,99.41
2023-04-07T07:23:54.360Z,99.41
2023-04-07T07:24:54.302Z,99.21
2023-04-07T07:25:54.079Z,99.21
2023-04-07T07:26:54.045Z,99.10
2023-04-07T07:27:53.958Z,99.21
2023-04-07T07:28:54.004Z,99.31
2023-04-07T07:29:54.165Z,99.31
2023-04-07T07:30:54.100Z,99.41
2023-04-07T07:31:55.247Z,99.41
2023-04-07T07:32:56.554Z,99.41
2023-04-07T07:33:54.175Z,99.41
2023-04-07T07:34:54.145Z,99.41
2023-04-07T07:35:54.190Z,99.41
2023-04-07T07:36:54.141Z,99.31
2023-04-07T07:37:53.876Z,99.41
2023-04-07T07:38:53.856Z,99.41
2023-04-07T07:39:53.788Z,99.31
2023-04-07T07:40:53.769Z,99.21
2023-04-07T07:41:53.760Z,99.21
2023-04-07T07:42:53.742Z,99.31
2023-04-07T07:43:53.757Z,99.31
2023-04-07T07:44:53.727Z,99.31
2023-04-07T07:45:53.709Z,99.21
2023-04-07T07:46:53.746Z,99.21
2023-04-07T07:47:53.754Z,99.21
2023-04-07T07:48:53.699Z,99.31
2023-04-07T07:49:53.717Z,99.31
2023-04-07T07:50:53.738Z,99.21
2023-04-07T07:51:53.722Z,99.31
2023-04-07T07:52:53.782Z,99.31
2023-04-07T07:53:53.723Z,99.21
2023-04-07T07:54:53.735Z,99.21
2023-04-07T07:55:53.663Z,99.16
2023-04-07T07:56:53.632Z,99.10
2023-04-07T07:57:53.617Z,99.05
2023-04-07T07:58:53.634Z,99.05
2023-04-07T07:59:53.593Z,99.05
2023-04-07T08:00:53.550Z,99.05
2023-04-07T08:01:53.551Z,99.05
2023-04-07T08:02:53.602Z,98.96
2023-04-07T08:03:53.948Z,98.96
2023-04-07T08:04:53.588Z,98.96
2023-04-07T08:05:53.520Z,98.96
2023-04-07T08:06:53.507Z,98.96
2023-04-07T08:07:54.701Z,98.85
2023-04-07T08:08:53.481Z,98.85
2023-04-07T08:09:53.461Z,98.96
2023-04-07T08:10:53.461Z,98.96
2023-04-07T08:11:53.428Z,98.96
2023-04-07T08:12:53.438Z,98.96
2023-04-07T08:13:53.613Z,98.85
2023-04-07T08:14:53.451Z,98.65
2023-04-07T08:15:53.439Z,98.65
2023-04-07T08:16:53.378Z,98.60
2023-04-07T08:17:54.832Z,98.39
2023-04-07T08:18:53.384Z,98.39
2023-04-07T08:19:53.362Z,98.29
2023-04-07T08:20:53.349Z,98.39
2023-04-07T08:21:53.328Z,98.50
2023-04-07T08:22:53.318Z,98.50
2023-04-07T08:23:53.765Z,98.50
2023-04-07T08:24:53.299Z,98.60
2023-04-07T08:25:53.399Z,98.70
2023-04-07T08:26:53.274Z,98.80
2023-04-07T08:27:53.271Z,98.80
2023-04-07T08:28:53.358Z,98.91
2023-04-07T08:29:53.239Z,98.91
2023-04-07T08:30:53.276Z,98.80
2023-04-07T08:31:53.321Z,98.91
2023-04-07T08:32:53.343Z,99.01
2023-04-07T08:33:53.197Z,99.11
2023-04-07T08:34:53.185Z,99.11
2023-04-07T08:35:53.181Z,99.01
2023-04-07T08:36:53.183Z,98.91
2023-04-07T08:37:53.154Z,98.70
2023-04-07T08:38:53.165Z,98.50
2023-04-07T08:39:53.124Z,98.70
2023-04-07T08:40:53.121Z,98.70
2023-04-07T08:41:53.107Z,98.66
2023-04-07T08:42:53.186Z,98.60
2023-04-07T08:43:53.268Z,98.55
2023-04-07T08:44:53.083Z,98.45
2023-04-07T08:45:53.731Z,98.66
2023-04-07T08:46:53.094Z,98.66
2023-04-07T08:47:53.116Z,98.66
2023-04-07T08:48:53.097Z,98.66
2023-04-07T08:49:53.019Z,98.86
2023-04-07T08:50:53.064Z,98.76
2023-04-07T08:51:52.982Z,98.55
2023-04-07T08:52:53.000Z,98.45
2023-04-07T08:53:53.001Z,98.14
2023-04-07T08:54:52.966Z,98.35
2023-04-07T08:55:52.956Z,98.55
2023-04-07T08:56:52.942Z,98.55
2023-04-07T08:57:52.934Z,98.55
2023-04-07T08:58:52.925Z,98.66
2023-04-07T08:59:52.922Z,98.76
2023-04-07T09:00:52.960Z,98.66
2023-04-07T09:01:52.944Z,98.55
2023-04-07T09:02:52.966Z,98.66
2023-04-07T09:03:53.168Z,98.55
2023-04-07T09:04:52.845Z,98.45
2023-04-07T09:05:52.841Z,98.45
2023-04-07T09:06:52.890Z,98.35
2023-04-07T09:07:52.883Z,98.35
2023-04-07T09:08:52.815Z,98.35
2023-04-07T09:09:52.796Z,98.35
2023-04-07T09:10:52.801Z,98.35
2023-04-07T09:11:52.826Z,98.35
2023-04-07T09:12:52.784Z,98.35
2023-04-07T09:13:52.757Z,98.45
2023-04-07T09:14:52.740Z,98.45
2023-04-07T09:15:52.727Z,98.55
2023-04-07T09:16:52.790Z,98.55
2023-04-07T09:17:52.736Z,98.66
2023-04-07T09:18:52.698Z,98.66
2023-04-07T09:19:52.681Z,98.76
2023-04-07T09:20:52.679Z,98.45
2023-04-07T09:21:52.655Z,98.66
2023-04-07T09:22:52.670Z,98.55
2023-04-07T09:23:52.640Z,98.76
2023-04-07T09:24:52.618Z,98.55
2023-04-07T09:25:52.621Z,98.55
2023-04-07T09:26:52.597Z,98.35
2023-04-07T09:27:52.589Z,98.51
2023-04-07T09:28:52.582Z,98.14
2023-04-07T09:29:52.594Z,98.10
2023-04-07T09:30:52.547Z,98.10
2023-04-07T09:31:52.576Z,98.30
2023-04-07T09:32:52.573Z,98.30
2023-04-07T09:33:52.534Z,97.99
2023-04-07T09:34:52.544Z,98.10
2023-04-07T09:35:52.526Z,98.10
2023-04-07T09:36:52.500Z,98.10
2023-04-07T09:37:52.478Z,98.20
2023-04-07T09:38:52.500Z,97.99
2023-04-07T09:39:52.489Z,97.85
2023-04-07T09:40:52.446Z,97.54
2023-04-07T09:41:52.472Z,97.03
2023-04-07T09:42:52.422Z,96.92
2023-04-07T09:43:52.496Z,96.92
2023-04-07T09:44:52.398Z,97.13
2023-04-07T09:45:52.455Z,97.13
2023-04-07T09:46:52.386Z,97.19
2023-04-07T09:47:52.461Z,97.19
2023-04-07T09:48:52.360Z,97.08
2023-04-07T09:49:52.349Z,97.34
2023-04-07T09:50:52.327Z,96.83
2023-04-07T09:51:52.336Z,96.42
2023-04-07T09:52:52.387Z,95.86
2023-04-07T09:53:52.829Z,96.12
2023-04-07T09:54:52.288Z,95.86
2023-04-07T09:55:52.285Z,95.24
2023-04-07T09:56:52.274Z,94.83
2023-04-07T09:57:52.273Z,95.34
2023-04-07T09:58:52.294Z,95.65
2023-04-07T09:59:52.250Z,95.61
2023-04-07T10:00:52.302Z,95.14
2023-04-07T10:01:53.423Z,95.29
2023-04-07T10:02:52.425Z,94.83
2023-04-07T10:03:52.349Z,94.93
2023-04-07T10:04:52.517Z,95.09
2023-04-07T10:05:52.191Z,95.50
2023-04-07T10:06:52.206Z,95.40
2023-04-07T10:07:52.202Z,95.91
2023-04-07T10:08:52.384Z,95.50
2023-04-07T10:09:52.152Z,94.99
2023-04-07T10:10:52.135Z,94.32
2023-04-07T10:11:52.127Z,94.48
2023-04-07T10:12:53.109Z,94.01
2023-04-07T10:13:52.107Z,93.70
2023-04-07T10:14:52.090Z,93.60
2023-04-07T10:15:52.100Z,93.80
2023-04-07T10:16:52.155Z,93.90
2023-04-07T10:17:52.215Z,93.80
2023-04-07T10:18:52.057Z,93.39
2023-04-07T10:19:52.055Z,93.39
2023-04-07T10:20:52.070Z,93.90
2023-04-07T10:21:52.007Z,93.95
2023-04-07T10:22:52.036Z,94.15
2023-04-07T10:23:52.041Z,93.85
2023-04-07T10:24:51.976Z,93.85
2023-04-07T10:25:51.986Z,93.85
2023-04-07T10:26:52.020Z,94.15
2023-04-07T10:27:51.946Z,94.05
2023-04-07T10:28:52.249Z,94.62
2023-04-07T10:29:51.923Z,94.52
2023-04-07T10:30:51.990Z,94.52
2023-04-07T10:31:51.908Z,94.32
2023-04-07T10:32:51.935Z,94.42
2023-04-07T10:33:52.365Z,94.11
2023-04-07T10:34:51.878Z,94.32
2023-04-07T10:35:51.891Z,94.52
2023-04-07T10:36:51.854Z,94.62
2023-04-07T10:37:51.932Z,94.83
2023-04-07T10:38:51.851Z,94.62
2023-04-07T10:39:51.832Z,94.32
2023-04-07T10:40:51.817Z,94.62
2023-04-07T10:41:51.841Z,94.32
2023-04-07T10:42:51.800Z,94.42
2023-04-07T10:43:51.786Z,94.11
2023-04-07T10:44:51.821Z,94.11
2023-04-07T10:45:51.791Z,94.52
2023-04-07T10:46:51.741Z,94.68
2023-04-07T10:47:51.780Z,94.99
2023-04-07T10:48:51.724Z,94.68
2023-04-07T10:49:51.712Z,94.48
2023-04-07T10:50:51.704Z,94.37
2023-04-07T10:51:51.690Z,94.21
2023-04-07T10:52:52.665Z,94.01
2023-04-07T10:53:51.967Z,93.70
2023-04-07T10:54:51.648Z,93.49
2023-04-07T10:55:51.644Z,93.80
2023-04-07T10:56:51.651Z,94.32
2023-04-07T10:57:51.623Z,94.11
2023-04-07T10:58:51.779Z,94.52
2023-04-07T10:59:51.596Z,94.21
2023-04-07T11:00:51.588Z,94.11
2023-04-07T11:01:51.708Z,94.32
2023-04-07T11:02:51.844Z,94.42
2023-04-07T11:03:51.817Z,93.08
2023-04-07T11:04:51.593Z,93.39
2023-04-07T11:05:51.537Z,93.29
2023-04-07T11:06:51.523Z,92.98
2023-04-07T11:07:51.614Z,93.49
2023-04-07T11:08:51.518Z,93.39
2023-04-07T11:09:51.484Z,93.39
2023-04-07T11:10:51.502Z,93.49
2023-04-07T11:11:51.490Z,93.39
2023-04-07T11:12:51.473Z,93.39
2023-04-07T11:13:51.752Z,93.19
2023-04-07T11:14:51.443Z,93.70
2023-04-07T11:15:51.417Z,92.78
2023-04-07T11:16:51.414Z,92.98
2023-04-07T11:17:51.539Z,92.27
2023-04-07T11:18:51.439Z,92.78
2023-04-07T11:19:51.399Z,93.45
2023-04-07T11:20:51.375Z,93.15
2023-04-07T11:21:51.355Z,92.83
2023-04-07T11:22:51.381Z,92.63
2023-04-07T11:23:51.567Z,92.83
2023-04-07T11:24:51.328Z,92.74
2023-04-07T11:25:51.331Z,92.63
2023-04-07T11:26:51.313Z,92.02
2023-04-07T11:27:51.330Z,91.82
2023-04-07T11:28:51.333Z,92.12
2023-04-07T11:29:51.287Z,91.82
2023-04-07T11:30:51.291Z,91.71
2023-04-07T11:31:51.426Z,91.82
2023-04-07T11:32:51.319Z,92.63
2023-04-07T11:33:51.230Z,92.83
2023-04-07T11:34:51.220Z,92.49
2023-04-07T11:35:51.327Z,92.18
2023-04-07T11:36:51.203Z,92.18
2023-04-07T11:37:51.260Z,92.28
2023-04-07T11:38:51.191Z,92.59
2023-04-07T11:39:51.191Z,92.38
2023-04-07T11:40:51.241Z,92.18
2023-04-07T11:41:51.228Z,92.44
2023-04-07T11:42:51.146Z,92.18
2023-04-07T11:43:51.122Z,92.34
2023-04-07T11:44:51.149Z,92.34
2023-04-07T11:45:51.092Z,92.24
2023-04-07T11:46:51.106Z,92.96
2023-04-07T11:47:51.189Z,93.26
2023-04-07T11:48:51.073Z,93.26
2023-04-07T11:49:51.057Z,93.67
2023-04-07T11:50:51.050Z,91.87
2023-04-07T11:51:51.027Z,92.08
2023-04-07T11:52:51.052Z,92.18
2023-04-07T11:53:51.042Z,92.69
2023-04-07T11:54:51.016Z,93.10
2023-04-07T11:55:50.988Z,92.69
2023-04-07T11:56:51.004Z,92.59
2023-04-07T11:57:51.002Z,92.59
2023-04-07T11:58:50.969Z,93.00
2023-04-07T11:59:50.951Z,92.69
2023-04-07T12:00:50.937Z,93.20
2023-04-07T12:01:51.037Z,93.62
2023-04-07T12:02:51.101Z,93.92
2023-04-07T12:03:51.136Z,93.82
2023-04-07T12:04:51.077Z,94.07
2023-04-07T12:05:50.915Z,94.37
2023-04-07T12:06:50.868Z,93.86
2023-04-07T12:07:50.875Z,94.58
2023-04-07T12:08:50.860Z,94.58
2023-04-07T12:09:50.863Z,94.89
2023-04-07T12:10:50.908Z,95.61
2023-04-07T12:11:50.887Z,95.91
2023-04-07T12:12:50.834Z,95.70
2023-04-07T12:13:51.036Z,95.50
2023-04-07T12:14:50.793Z,95.29
2023-04-07T12:15:50.770Z,95.09
2023-04-07T12:16:50.840Z,95.09
2023-04-07T12:17:50.987Z,95.40
2023-04-07T12:18:50.740Z,96.12
2023-04-07T12:19:50.738Z,95.61
2023-04-07T12:20:50.733Z,95.70
2023-04-07T12:21:50.714Z,95.81
2023-04-07T12:22:50.727Z,95.61
2023-04-07T12:23:50.954Z,95.40
2023-04-07T12:24:50.679Z,95.29
2023-04-07T12:25:50.672Z,95.81
2023-04-07T12:26:50.699Z,95.87
2023-04-07T12:27:50.662Z,96.48
2023-04-07T12:28:50.641Z,96.48
2023-04-07T12:29:50.649Z,95.97
2023-04-07T12:30:50.619Z,96.07
2023-04-07T12:31:51.443Z,95.97
2023-04-07T12:32:50.664Z,96.58
2023-04-07T12:33:50.858Z,95.97
2023-04-07T12:34:50.635Z,96.17
2023-04-07T12:35:50.655Z,96.33
2023-04-07T12:36:50.587Z,96.33
2023-04-07T12:37:50.552Z,96.23
2023-04-07T12:38:50.539Z,96.23
2023-04-07T12:39:50.514Z,96.44
2023-04-07T12:40:50.507Z,96.03
2023-04-07T12:41:50.572Z,95.67
2023-04-07T12:42:50.488Z,95.78
2023-04-07T12:43:50.733Z,95.57
2023-04-07T12:44:50.480Z,95.57
2023-04-07T12:45:50.489Z,96.29
2023-04-07T12:46:50.458Z,96.29
2023-04-07T12:47:50.441Z,96.49
2023-04-07T12:48:50.416Z,96.39
2023-04-07T12:49:50.557Z,96.80
2023-04-07T12:50:50.407Z,95.88
2023-04-07T12:51:50.394Z,95.51
2023-04-07T12:52:50.424Z,95.51